Πλησιέστερες Αναφορές METAR

 

LGTS - Thessaloniki/Makedonia-Elev 7m
Απόσταση από σταθμό: Ν 13km
Ενημερώθηκε: 16/12/2018 03:20
Ομίχλη, Συννεφιά
Ομίχλη, Συννεφιά
 Ανεμοι από μεταβλητός
Ανεμος: μεταβλητός 4 km/h
Θερμοκρασία: 9°C
Σημείο Δρόσου: 8°C
Υγρασία: 94%
Βαρόμετρο: 1012 hPa
Περίληψη: Ομίχλη
Νέφωση: Συννεφιά
Ορατότητα: 0 km
Λεπτομέρειες Νεφών: Συννεφιά 61 m
2018/12/16 01:20 LGTS 160120Z VRB02KT 0100 R16/0800 R34/0650 FG VV002 09/08 Q1012 NOSIG
LGAV - Athens/Elef. Venizelos-Elev 94m
Απόσταση από σταθμό: ΝΝΑ 312km
Ενημερώθηκε: 16/12/2018 03:20
Ασθενής βροχή, Σχεδόν νεφελώδης
Ασθενής βροχή, Σχεδόν νεφελώδης
 Ανεμοι από ΝΔ
Ανεμος: ΝΔ 7 km/h
Θερμοκρασία: 12°C
Σημείο Δρόσου: 9°C
Υγρασία: 82%
Βαρόμετρο: 1012 hPa
Περίληψη: Ασθενής βροχή
Νέφωση: Σχεδόν νεφελώδης
Ορατότητα: 10 km
Λεπτομέρειες Νεφών: Διάσπαρτα Νέφη 610 m
Σχεδόν νεφελώδης 914 m
Σχεδόν νεφελώδης 2134 m
2018/12/16 01:20 LGAV 160120Z 22004KT 160V270 9999 -RA FEW020TCU BKN030 BKN070 12/09 Q1012 NOSIG
 
LGAL - Alexandroupolis-Elev 3m
Απόσταση από σταθμό: Α 251km
Ενημερώθηκε: 15/12/2018 21:20
ΜΗ Ενημερωμένο METAR!
Ασθενής βροχή, Μερικώς νεφελώδης
Ασθενής βροχή, Μερικώς νεφελώδης
 Ανεμοι από ΑΒΑ
Ανεμος: ΑΒΑ 9 km/h
Θερμοκρασία: 12°C
Σημείο Δρόσου: 11°C
Υγρασία: 94%
Βαρόμετρο: 1016 hPa
Περίληψη: Ασθενής βροχή
Νέφωση: Μερικώς νεφελώδης
Ορατότητα: 10 km
Λεπτομέρειες Νεφών: Διάσπαρτα Νέφη 457 m
Μερικώς νεφελώδης 610 m
2018/12/15 19:20 LGAL 151920Z 06005KT 9999 -RA FEW015TCU SCT020 12/11 Q1016
LGKV - Kavala/Crysoupolis-Elev 5m
Απόσταση από σταθμό: ΑΒΑ 144km
Ενημερώθηκε: 15/12/2018 20:50
ΜΗ Ενημερωμένο METAR!
Μερικώς νεφελώδης
Μερικώς νεφελώδης
 Ανεμοι από ΒΒΑ
Ανεμος: ΒΒΑ 13 km/h
Θερμοκρασία: 12°C
Σημείο Δρόσου: 11°C
Υγρασία: 94%
Βαρόμετρο: 1014 hPa
Νέφωση: Μερικώς νεφελώδης
Ορατότητα: 10 km
Λεπτομέρειες Νεφών: Διάσπαρτα Νέφη 244 m
Διάσπαρτα Νέφη 457 m
Μερικώς νεφελώδης 762 m
2018/12/15 18:50 LGKV 151850Z 03007KT 9999 FEW008 FEW015TCU SCT025 12/11 Q1014
 
LGSK - Skiathos Island-Elev 15m
Απόσταση από σταθμό: ΝΝΑ 168km
Ενημερώθηκε: 15/12/2018 13:50
ΜΗ Ενημερωμένο METAR!
Μερικώς νεφελώδης
Μερικώς νεφελώδης
 Ανεμοι από άπνοια
Ανεμος: άπνοια
Θερμοκρασία: 15°C
Σημείο Δρόσου: 13°C
Υγρασία: 88%
Βαρόμετρο: 1015 hPa
Νέφωση: Μερικώς νεφελώδης
Ορατότητα: 10 km
Λεπτομέρειες Νεφών: Μερικώς νεφελώδης 914 m
2018/12/15 11:50 LGSK 151150Z 00000KT 9999 SCT030 15/13 Q1015
LGLM - Limnos Island-Elev 5m
Απόσταση από σταθμό: ΑΝΑ 210km
Ενημερώθηκε: 16/12/2018 03:20

 Ανεμοι από ΝΑ
Ανεμος: ΝΑ 28 km/h
Θερμοκρασία: 15°C
Σημείο Δρόσου: 11°C
Υγρασία: 77%
Βαρόμετρο: 1012 hPa
2018/12/16 01:20 LGLM 160120Z AUTO 14015KT //// // ////// 15/11 Q1012 RE//
 
LGMT - Mitilini Island-Elev 17m
Απόσταση από σταθμό: ΑΝΑ 358km
Ενημερώθηκε: 15/12/2018 21:50
ΜΗ Ενημερωμένο METAR!
Ασθενής βροχή, Μερικώς νεφελώδης
Ασθενής βροχή, Μερικώς νεφελώδης
 Ανεμοι από μεταβλητός
Ανεμος: μεταβλητός 6 km/h
Θερμοκρασία: 14°C
Σημείο Δρόσου: 11°C
Υγρασία: 82%
Βαρόμετρο: 1017 hPa
Περίληψη: Ασθενής βροχή
Νέφωση: Μερικώς νεφελώδης
Ορατότητα: 10 km
Λεπτομέρειες Νεφών: Μερικώς νεφελώδης 610 m
2018/12/15 19:50 LGMT 151950Z VRB03KT 9999 -RA SCT020TCU 14/11 Q1017
LGSY - Skiros Island-Elev 15m
Απόσταση από σταθμό: ΝΑ 227km
Ενημερώθηκε: 16/12/2018 01:50
ΜΗ Ενημερωμένο METAR!
Μερικώς νεφελώδης
Μερικώς νεφελώδης
 Ανεμοι από ΝΝΑ
Ανεμος: ΝΝΑ 19 km/h
Θερμοκρασία: 15°C
Σημείο Δρόσου: 13°C
Υγρασία: 88%
Βαρόμετρο: 1011 hPa
Νέφωση: Μερικώς νεφελώδης
Ορατότητα: 10 km
Λεπτομέρειες Νεφών: Διάσπαρτα Νέφη 396 m
Μερικώς νεφελώδης 914 m
2018/12/15 23:50 LGSY 152350Z 15010KT 9999 FEW013 SCT030 15/13 Q1011 RMK FEW018 BKN100 BLU
 
LGKZ - Kozani-Elev 628m
Απόσταση από σταθμό: ΔΝΔ 102km
Ενημερώθηκε: 15/12/2018 13:50
ΜΗ Ενημερωμένο METAR!
Σχεδόν νεφελώδης
Σχεδόν νεφελώδης
 Ανεμοι από ΑΝΑ
Ανεμος: ΑΝΑ 7 km/h
Θερμοκρασία: 9°C
Δείκτης Ψύχρας: 8°C
Σημείο Δρόσου: 7°C
Υγρασία: 87%
Βαρόμετρο: 1015 hPa
Νέφωση: Σχεδόν νεφελώδης
Ορατότητα: 10 km
Λεπτομέρειες Νεφών: Διάσπαρτα Νέφη 152 m
Μερικώς νεφελώδης 762 m
Σχεδόν νεφελώδης 2134 m
2018/12/15 11:50 LGKZ 151150Z 12004KT 9999 FEW005 SCT025 BKN070 09/07 Q1015
LGIO - Ioannina-Elev 476m
Απόσταση από σταθμό: ΔΝΔ 209km
Ενημερώθηκε: 15/12/2018 19:50
ΜΗ Ενημερωμένο METAR!
Βροχή, Συννεφιά
Βροχή, Συννεφιά
 Ανεμοι από μεταβλητός
Ανεμος: μεταβλητός 0 km/h
Θερμοκρασία: 7°C
Σημείο Δρόσου: 7°C
Υγρασία: 100%
Βαρόμετρο: 1013 hPa
Περίληψη: Βροχή
Νέφωση: Συννεφιά
Ορατότητα: 7 km
Λεπτομέρειες Νεφών: Διάσπαρτα Νέφη 183 m
Σχεδόν νεφελώδης 914 m
Συννεφιά 1829 m
2018/12/15 17:50 LGIO 151750Z /////KT 7000 RA FEW006 BKN030 OVC060 07/07 Q1013
 
LGZA - Zakinthos-Elev 3m
Απόσταση από σταθμό: ΝΝΔ 367km
Ενημερώθηκε: 15/12/2018 19:50
ΜΗ Ενημερωμένο METAR!
Drizzle, Σχεδόν νεφελώδης
Drizzle, Σχεδόν νεφελώδης
 Ανεμοι από μεταβλητός
Ανεμος: μεταβλητός 6 km/h
Θερμοκρασία: 13°C
Σημείο Δρόσου: 11°C
Υγρασία: 88%
Βαρόμετρο: 1012 hPa
Περίληψη: Drizzle
Νέφωση: Σχεδόν νεφελώδης
Ορατότητα: 10 km
Λεπτομέρειες Νεφών: Μερικώς νεφελώδης 427 m
Διάσπαρτα Νέφη 488 m
Σχεδόν νεφελώδης 549 m
Σχεδόν νεφελώδης 2134 m
2018/12/15 17:50 LGZA 151750Z VRB03KT 9999 DZ SCT014 FEW016TCU BKN018 BKN070 13/11 Q1012
LGKR - Corfu Island-Elev 2m
Απόσταση από σταθμό: ΔΝΔ 282km
Ενημερώθηκε: 16/12/2018 03:20
Ασθενής βροχή, Συννεφιά
Ασθενής βροχή, Συννεφιά
 Ανεμοι από ΔΒΔ
Ανεμος: ΔΒΔ 15 km/h
Θερμοκρασία: 11°C
Σημείο Δρόσου: 10°C
Υγρασία: 94%
Βαρόμετρο: 1011 hPa
Περίληψη: Ασθενής βροχή
Νέφωση: Συννεφιά
Ορατότητα: 8 km
Λεπτομέρειες Νεφών: Διάσπαρτα Νέφη 549 m
Σχεδόν νεφελώδης 762 m
Συννεφιά 2438 m
2018/12/16 01:20 LGKR 160120Z 30008KT 8000 -RA FEW018TCU BKN025 OVC080 11/10 Q1011 NOSIG
 
LGSO - Syros Island-Elev 72m
Απόσταση από σταθμό: ΝΝΑ 397km
Ενημερώθηκε: 16/12/2018 03:20

 Ανεμοι από ΝΑ
Ανεμος: ΝΑ 24 km/h
Θερμοκρασία: 16°C
Σημείο Δρόσου: 12°C
Υγρασία: 77%
Βαρόμετρο: 1011 hPa
2018/12/16 01:20 LGSO 160120Z AUTO 13013KT //// // ////// 16/12 Q1011 RE//
LGMK - Mikonos Island-Elev 123m
Απόσταση από σταθμό: ΝΝΑ 412km
Ενημερώθηκε: 15/12/2018 19:50
ΜΗ Ενημερωμένο METAR!
Διάσπαρτα Νέφη
Διάσπαρτα Νέφη
 Ανεμοι από ΝΑ
Ανεμος: ΝΑ 19 km/h
Θερμοκρασία: 15°C
Σημείο Δρόσου: 9°C
Υγρασία: 68%
Βαρόμετρο: 1015 hPa
Νέφωση: Διάσπαρτα Νέφη
Ορατότητα: 10 km
Λεπτομέρειες Νεφών: Διάσπαρτα Νέφη 457 m
2018/12/15 17:50 LGMK 151750Z 13010KT 9999 FEW015 15/09 Q1015
 
LGSR - Santorini Island-Elev 40m
Απόσταση από σταθμό: ΝΝΑ 520km
Ενημερώθηκε: 16/12/2018 03:20
Ασθενής βροχή
Ασθενής βροχή
 Ανεμοι από Β
Ανεμος: Β 33 km/h
Θερμοκρασία: 16°C
Σημείο Δρόσου: 14°C
Υγρασία: 88%
Βαρόμετρο: 1011 hPa
Περίληψη: Ασθενής βροχή
2018/12/16 01:20 LGSR 160120Z AUTO 36018KT //// -RA ////// 16/14 Q1011 RE//
LGKL - Kalamata-Elev 8m
Απόσταση από σταθμό: Ν 405km
Ενημερώθηκε: 16/12/2018 03:20

 Ανεμοι από Β
Ανεμος: Β 7 km/h
Θερμοκρασία: 10°C
Δείκτης Ψύχρας: 9°C
Σημείο Δρόσου: 8°C
Υγρασία: 88%
Βαρόμετρο: 1009 hPa
2018/12/16 01:20 LGKL 160120Z AUTO 36004KT //// // ////// 10/08 Q1009 RE//
 
LGIR - Iraklion/Crete-Elev 5m
Απόσταση από σταθμό: ΝΝΑ 622km
Ενημερώθηκε: 16/12/2018 03:20
Ασθενής καταιγίδα, Βροχή, Συννεφιά
Ασθενής καταιγίδα, Βροχή, Συννεφιά
 Ανεμοι από Ν
Ανεμος: Ν 31 km/h
Θερμοκρασία: 16°C
Σημείο Δρόσου: 14°C
Υγρασία: 88%
Βαρόμετρο: 1009 hPa
Περίληψη: Ασθενής καταιγίδα, Βροχή
Νέφωση: Συννεφιά
Ορατότητα: 8 km
Λεπτομέρειες Νεφών: Διάσπαρτα Νέφη 549 m
Μερικώς νεφελώδης 914 m
Συννεφιά 2438 m
2018/12/16 01:20 LGIR 160120Z 17017KT 8000 -TSRA FEW018CB SCT030 OVC080 16/14 Q1009 NOSIG
LGRP - Rhodes-Elev 5m
Απόσταση από σταθμό: ΝΑ 649km
Ενημερώθηκε: 16/12/2018 03:20
Kαταιγίδα, Μερικώς νεφελώδης
Kαταιγίδα, Μερικώς νεφελώδης
 Ανεμοι από μεταβλητός
Ανεμος: μεταβλητός 15 km/h, Ριπή: 33 km/h
Θερμοκρασία: 17°C
Σημείο Δρόσου: 15°C
Υγρασία: 88%
Βαρόμετρο: 1015 hPa
Περίληψη: Kαταιγίδα
Νέφωση: Μερικώς νεφελώδης
Ορατότητα: 10 km
Λεπτομέρειες Νεφών: Διάσπαρτα Νέφη 549 m
Μερικώς νεφελώδης 762 m
2018/12/16 01:20 LGRP 160120Z VRB08G18KT 9999 TS FEW018CB SCT025 17/15 Q1015 WS ALL RWY NOSIG
 
LWOH - Ohrid/FYROM-Elev 761m
Απόσταση από σταθμό: ΔΒΔ 188km
Ενημερώθηκε: 15/12/2018 16:00
ΜΗ Ενημερωμένο METAR!
Συννεφιά
Συννεφιά
 Ανεμοι από Β
Ανεμος: Β 9 km/h
Θερμοκρασία: 6°C
Δείκτης Ψύχρας: 4°C
Σημείο Δρόσου: 5°C
Υγρασία: 93%
Βαρόμετρο: 1012 hPa
Νέφωση: Συννεφιά
Ορατότητα: 10 km
Λεπτομέρειες Νεφών: Διάσπαρτα Νέφη 610 m
Σχεδόν νεφελώδης 1219 m
Συννεφιά 2438 m
2018/12/15 14:00 LWOH 151400Z 36005KT 9999 FEW020 BKN040 OVC080 06/05 Q1012
LBSF - Sofia/Bulgaria-Elev 595m
Απόσταση από σταθμό: Β 227km
Ενημερώθηκε: 16/12/2018 03:30
Σχεδόν νεφελώδης
Σχεδόν νεφελώδης
 Ανεμοι από ΝΑ
Ανεμος: ΝΑ 19 km/h
Θερμοκρασία: 6°C
Δείκτης Ψύχρας: 3°C
Σημείο Δρόσου: 4°C
Υγρασία: 87%
Βαρόμετρο: 1012 hPa
Νέφωση: Σχεδόν νεφελώδης
Ορατότητα: 10 km
Λεπτομέρειες Νεφών: Μερικώς νεφελώδης 366 m
Σχεδόν νεφελώδης 488 m
2018/12/16 01:30 LBSF 160130Z 13010KT 9999 SCT012 BKN016 06/04 Q1012 R99/19//95 NOSIG